Latest Coastal Weather Observations for Whyalla

IDS60701

Issued at 7:11 pm CST Thursday 19 April 2018 (issued every 10 minutes, with the page automatically refreshed every 10 minutes)

About coastal observations | Map of coastal stations | Coastal observations for SA | Marine services | Other Formats
Station Details ID: 018120 Name: WHYALLA AERO Lat: -33.05 Lon: 137.52 Height: 9.3 m
Data from the previous 72 hours. | See also: Recent months at Whyalla
Date/Time
CST
Temp
°C
Wind Pressure Rain since
9am
mm
Weather Cloud Vis
km
Sea
Height
m
Swell
Dir  Spd
kts
Gust
kts
hPa Trend Height
m
Period
s
Dir
19/07:00pm 25.2 NE 4 6 1014.4 - 0.0 - Clear 10 - - - -
19/06:30pm 25.6 ENE 5 7 1014.1 - 0.0 - - 10 - - - -
19/06:00pm 26.6 ENE 6 7 1013.9 - 0.0 - - 10 - - - -
19/05:30pm 28.5 E 8 11 1013.7 - 0.0 - - 10 - - - -
19/05:00pm 29.7 E 9 12 1013.6 - 0.0 - - 10 - - - -
19/04:30pm 30.0 E 11 15 1013.7 - 0.0 - - 10 - - - -
19/04:00pm 31.0 ENE 14 18 1013.7 - 0.0 - - 10 - - - -
19/03:30pm 31.1 E 14 18 1013.6 - 0.0 - - 10 - - - -
19/03:00pm 31.8 E 14 19 1013.6 - 0.0 - - 10 - - - -
19/02:30pm 32.6 N 8 15 1013.7 - 0.0 - - 10 - - - -
19/02:00pm 32.4 NE 7 11 1013.9 - 0.0 - - 10 - - - -
19/01:30pm 32.1 NNE 7 11 1014.1 - 0.0 - - 10 - - - -
19/01:00pm 31.6 NNE 8 14 1014.6 - 0.0 - - 10 - - - -
19/12:30pm 31.7 NNW 8 12 1015.0 - 0.0 - - 10 - - - -
19/12:00pm 31.7 N 8 12 1015.6 - 0.0 - - 10 - - - -
19/11:30am 30.1 NNW 10 14 1015.9 - 0.0 - - 10 - - - -
19/11:00am 30.5 NNW 9 14 1016.3 - 0.0 - - 10 - - - -
19/10:30am 29.0 N 10 15 1016.5 - 0.0 - - 10 - - - -
19/10:00am 27.6 N 12 15 1016.7 - 0.0 - - 10 - - - -
19/09:30am 26.5 N 11 15 1016.8 - 0.0 - - 10 - - - -
19/09:00am 25.4 N 10 12 1016.9 - 0.0 - - 10 - - - -
19/08:30am 21.5 NW 6 9 1016.7 - 0.0 - - 10 - - - -
19/08:00am 18.1 NW 4 5 1016.4 - 0.0 - - 10 - - - -
19/07:30am 15.3 WNW 5 6 1016.1 - 0.0 - - 10 - - - -
19/07:00am 13.8 WNW 5 6 1015.8 - 0.0 - - 10 - - - -
19/06:30am 12.5 WNW 2 4 1015.4 - 0.0 - - 10 - - - -
19/06:00am 13.0 NW 4 5 1015.2 - 0.0 - - 10 - - - -
19/05:30am 13.2 NW 4 5 1015.0 - 0.0 - - 10 - - - -
19/05:00am 13.0 NW 5 5 1014.8 - 0.0 - - 10 - - - -
19/04:30am 13.1 NW 5 6 1014.5 - 0.0 - - 10 - - - -
19/04:00am 13.2 NW 4 5 1014.4 - 0.0 - - 10 - - - -
19/03:30am 14.0 NNW 7 7 1014.4 - 0.0 - - 10 - - - -
19/03:00am 14.0 NW 6 7 1014.6 - 0.0 - - 10 - - - -
19/02:30am 13.9 NNW 5 6 1014.9 - 0.0 - - 10 - - - -
19/02:00am 14.9 NNW 4 5 1015.3 - 0.0 - - 10 - - - -
19/01:30am 14.9 NW 4 5 1015.4 - 0.0 - - 10 - - - -
19/01:00am 15.5 NNW 3 5 1015.6 - 0.0 - - 10 - - - -
19/12:30am 15.6 NW 6 7 1015.5 - 0.0 - - 10 - - - -
19/12:00am 17.0 NNE 5 9 1015.6 - 0.0 - - 10 - - - -
 
Date/Time
CST
Temp
°C
Wind Pressure Rain since
9am
mm
Weather Cloud Vis
km
Sea
Height
m
Swell
Dir  Spd
kts
Gust
kts
hPa Trend Height
m
Period
s
Dir
18/11:30pm 16.1 NNW 5 6 1015.6 - 0.0 - - 10 - - - -
18/11:00pm 16.6 W 5 7 1015.8 - 0.0 - - 10 - - - -
18/10:30pm 17.2 W 4 5 1015.8 - 0.0 - - 10 - - - -
18/10:00pm 17.7 W 4 5 1016.0 - 0.0 - - 10 - - - -
18/09:30pm 18.2 W 4 6 1015.8 - 0.0 - - 10 - - - -
18/09:00pm 18.4 CALM 0 0 1015.6 - 0.0 - - 10 - - - -
18/08:30pm 19.8 NE 3 4 1015.5 - 0.0 - - 10 - - - -
18/08:00pm 21.2 NE 4 5 1015.6 - 0.0 - - 10 - - - -
18/07:30pm 22.7 NE 5 6 1015.5 - 0.0 - - 10 - - - -
18/07:00pm 22.5 NE 5 7 1015.3 - 0.0 - - 10 - - - -
18/06:30pm 22.5 ENE 7 9 1015.0 - 0.0 - - 10 - - - -
18/06:00pm 23.2 E 7 8 1014.8 - 0.0 - Mostly clear 10 - - - -
18/05:30pm 24.5 E 9 12 1014.5 - 0.0 - - 10 - - - -
18/05:00pm 26.4 E 7 10 1014.5 - 0.0 - Partly cloudy 10 - - - -
18/04:30pm 26.9 E 5 9 1014.6 - 0.0 - Partly cloudy 10 - - - -
18/04:00pm 29.3 NW 6 10 1014.5 - 0.0 - Partly cloudy 10 - - - -
18/03:30pm 28.4 WNW 8 13 1014.5 - 0.0 - Partly cloudy 10 - - - -
18/03:00pm 29.2 WNW 7 12 1014.5 - 0.0 - Partly cloudy 10 - - - -
18/02:30pm 29.1 WNW 11 16 1014.7 - 0.0 - Partly cloudy 10 - - - -
18/02:00pm 28.3 NW 5 10 1015.1 - 0.0 - Partly cloudy 10 - - - -
18/01:30pm 28.4 NW 9 17 1015.6 - 0.0 - - 10 - - - -
18/01:00pm 28.2 NW 12 20 1016.2 - 0.0 - Partly cloudy 10 - - - -
18/12:30pm 27.6 NW 13 17 1016.7 - 0.0 - - 10 - - - -
18/12:00pm 27.6 NNW 12 17 1017.3 - 0.0 - Mostly clear 10 - - - -
18/11:30am 26.2 NNW 11 15 1017.9 - 0.0 - - 10 - - - -
18/11:00am 24.8 N 12 17 1018.3 - 0.0 - - 10 - - - -
18/10:30am 25.1 N 12 19 1018.5 - 0.0 - - 10 - - - -
18/10:00am 24.0 N 7 10 1018.9 - 0.0 - - 10 - - - -
18/09:30am 20.8 NNW 1 3 1019.2 - 0.0 - - 10 - - - -
18/09:00am 18.3 NW 3 5 1019.5 - 0.0 - Mostly cloudy 10 - - - -
18/08:30am 16.6 WNW 3 4 1019.4 - 0.0 - - 10 - - - -
18/08:00am 13.8 NW 3 4 1019.3 - 0.0 - - 10 - - - -
18/07:30am 12.1 NW 5 5 1019.2 - 0.0 - - 10 - - - -
18/07:00am 11.7 NW 4 5 1018.8 - 0.0 - - 10 - - - -
18/06:30am 11.7 NW 4 5 1018.9 - 0.0 - - 10 - - - -
18/06:00am 11.8 NW 4 5 1019.0 - 0.0 - Mostly clear 10 - - - -
18/05:30am 11.8 NNW 4 5 1018.9 - 0.0 - - 10 - - - -
18/05:00am 11.9 NW 4 5 1018.8 - 0.0 - - 10 - - - -
18/04:30am 12.3 NW 5 6 1018.6 - 0.0 - - 10 - - - -
18/04:00am 12.7 NW 5 6 1018.7 - 0.0 - - 10 - - - -
18/03:30am 12.8 NW 5 6 1018.8 - 0.0 - - 10 - - - -
18/03:00am 12.9 NW 5 6 1019.1 - 0.0 - - 10 - - - -
18/02:30am 13.0 NW 5 6 1019.4 - 0.0 - - 10 - - - -
18/02:00am 13.3 WNW 4 5 1019.7 - 0.0 - - 10 - - - -
18/01:30am 13.3 W 4 5 1019.9 - 0.0 - - 10 - - - -
18/01:00am 13.7 W 4 4 1019.9 - 0.0 - - 10 - - - -
18/12:30am 14.3 W 4 4 1019.9 - 0.0 - - 10 - - - -
18/12:00am 14.7 WSW 5 6 1020.1 - 0.0 - - 10 - - - -
 
Date/Time
CST
Temp
°C
Wind Pressure Rain since
9am
mm
Weather Cloud Vis
km
Sea
Height
m
Swell
Dir  Spd
kts
Gust
kts
hPa Trend Height
m
Period
s
Dir
17/11:30pm 15.1 WSW 5 6 1020.3 - 0.0 - - 10 - - - -
17/11:00pm 15.4 SSW 3 4 1020.7 - 0.0 - - 10 - - - -
17/10:30pm 17.3 S 6 7 1021.0 - 0.0 - - 10 - - - -
17/10:00pm 17.1 SSW 5 7 1021.2 - 0.0 - - 10 - - - -
17/09:30pm 17.6 SSW 5 7 1021.3 - 0.0 - - 10 - - - -
17/09:00pm 17.9 SSW 6 7 1021.4 - 0.0 - - 10 - - - -
17/08:30pm 18.3 SSW 7 9 1021.4 - 0.0 - - 10 - - - -
17/08:00pm 18.5 SSW 8 9 1021.4 - 0.0 - - 10 - - - -
17/07:30pm 19.0 SSW 7 9 1021.2 - 0.0 - - 10 - - - -
17/07:00pm 18.5 SSW 6 7 1020.8 - 0.0 - - 10 - - - -
17/06:30pm 18.9 SSW 6 8 1020.5 - 0.0 - - 10 - - - -
17/06:00pm 19.6 S 7 9 1020.2 - 0.0 - - 10 - - - -
17/05:30pm 20.1 S 8 10 1020.3 - 0.0 - - 10 - - - -
17/05:00pm 20.3 S 8 10 1020.2 - 0.0 - - 10 - - - -
17/04:30pm 20.8 S 8 11 1020.4 - 0.0 - - 10 - - - -
17/04:00pm 20.6 S 10 12 1020.2 - 0.0 - - 10 - - - -
17/03:30pm 21.1 S 9 12 1020.4 - 0.0 - - 10 - - - -
17/03:00pm 21.3 SSE 9 12 1020.6 - 0.0 - - 10 - - - -
17/02:30pm 21.2 SSE 9 13 1020.6 - 0.0 - - 10 - - - -
17/02:00pm 21.1 SE 8 11 1020.8 - 0.0 - - 10 - - - -
17/01:30pm 21.7 SE 7 11 1021.3 - 0.0 - - 10 - - - -
17/01:00pm 20.8 SE 7 11 1021.7 - 0.0 - - 10 - - - -
17/12:30pm 20.6 ESE 7 10 1022.2 - 0.0 - - 10 - - - -
17/12:00pm 20.8 SE 7 11 1022.5 - 0.0 - - 10 - - - -
17/11:30am 19.8 ESE 7 11 1022.9 - 0.0 - - 10 - - - -
17/11:00am 19.4 ESE 8 11 1023.2 - 0.0 - Partly cloudy 10 - - - -
17/10:30am 19.2 ESE 9 15 1023.4 - 0.0 - Partly cloudy 10 - - - -
17/10:00am 18.8 ESE 12 15 1023.4 - 0.0 - Cloudy 10 - - - -
17/09:30am 18.4 SE 11 15 1023.6 - 0.0 - Partly cloudy 10 - - - -
17/09:00am 18.4 SE 13 18 1023.6 - 0.0 - Partly cloudy 10 - - - -
17/08:30am 18.3 SE 13 18 1023.4 - 0.0 - Partly cloudy 10 - - - -
17/08:00am 17.6 ESE 13 18 1023.3 - 0.0 - Partly cloudy 10 - - - -
17/07:30am 17.3 ESE 11 15 1023.3 - 0.0 - Cloudy 10 - - - -
17/07:00am 17.1 ESE 11 16 1023.1 - 0.0 - Partly cloudy 10 - - - -
17/06:30am 17.3 ESE 10 13 1022.9 - 0.0 - Cloudy 10 - - - -
17/06:00am 17.0 SE 9 15 1022.8 - 0.0 - Cloudy 10 - - - -
17/05:30am 17.5 SE 9 14 1022.7 - 0.0 - Partly cloudy 10 - - - -
17/05:00am 17.7 ESE 9 11 1022.5 - 0.0 - Partly cloudy 10 - - - -
17/04:30am 18.1 ESE 9 15 1022.2 - 0.0 - Partly cloudy 10 - - - -
17/04:00am 18.3 SE 10 14 1021.9 - 0.0 - Partly cloudy 10 - - - -
17/03:30am 18.4 SE 10 14 1022.0 - 0.0 - Cloudy 10 - - - -
17/03:00am 18.6 SSE 9 13 1021.9 - 0.0 - Cloudy 10 - - - -
17/02:30am 18.6 SSE 8 11 1021.8 - 0.0 - Cloudy 10 - - - -
17/02:00am 18.3 SSE 7 11 1021.9 - 0.0 - Cloudy 10 - - - -
17/01:30am 15.5 SSW 4 5 1022.3 - 0.0 - Partly cloudy 10 - - - -
17/01:00am 17.4 SSE 7 9 1022.7 - 0.0 - Partly cloudy 10 - - - -
17/12:30am 14.7 SW 4 5 1022.8 - 0.0 - Partly cloudy 10 - - - -
17/12:00am 15.0 SW 5 5 1022.7 - 0.0 - Mostly clear 10 - - - -
 
Date/Time
CST
Temp
°C
Wind Pressure Rain since
9am
mm
Weather Cloud Vis
km
Sea
Height
m
Swell
Dir  Spd
kts
Gust
kts
hPa Trend Height
m
Period
s
Dir
16/11:30pm 14.7 WSW 5 7 1022.9 - 0.0 - Partly cloudy 10 - - - -
16/11:00pm 15.0 WSW 4 6 1022.8 - 0.0 - - 10 - - - -
16/10:30pm 16.2 SSW 4 5 1022.5 - 0.0 - Partly cloudy 10 - - - -
16/10:00pm 17.1 SSW 5 6 1022.5 - 0.0 - Partly cloudy 10 - - - -
16/09:30pm 17.9 S 7 9 1022.4 - 0.0 - Partly cloudy 10 - - - -
16/09:00pm 18.3 SSE 8 13 1022.2 - 0.0 - Partly cloudy 10 - - - -
16/08:30pm 18.0 S 7 11 1021.9 - 0.0 - Partly cloudy 10 - - - -
16/08:00pm 18.5 S 10 14 1021.6 - 0.0 - Cloudy 10 - - - -
16/07:30pm 18.7 S 8 12 1021.4 - 0.0 - Partly cloudy 10 - - - -

Other Formats:

Comma delimited format used in spreadsheet applications
http://www.bom.gov.au/fwo/IDS60701/IDS60701.95664.axf

JavaScript Object Notation format (JSON) in row-major order
http://www.bom.gov.au/fwo/IDS60701/IDS60701.95664.json